Time;durP1;ratioP1;P1;durP2;ratioP2;P2;SDS_P1;SDS_P2;PMS_P1;PMS_P2;Temp;Humidity;BMP_temperature;BMP_pressure;BME280_temperature;BME280_humidity;BME280_pressure;Samples;Min_cycle;Max_cycle;Signal;HPM_P1;HPM_P2
2023/06/10 00:02:16;;;;;;;12.25;3.62;;;;;;;22.23;48.91;99816.55;1853954;77;21309;-81
2023/06/10 00:05:23;;;;;;;13.18;4.17;;;;;;;22.24;48.70;99816.28;1823614;78;21328;-81
2023/06/10 00:08:28;;;;;;;6.20;3.80;;;;;;;22.28;48.63;99809.08;1825058;78;21289;-80
2023/06/10 00:11:36;;;;;;;7.12;4.20;;;;;;;22.27;48.52;99817.70;1823565;78;21887;-81
2023/06/10 00:14:44;;;;;;;8.30;4.47;;;;;;;22.24;48.68;99808.48;1825274;78;21940;-81
2023/06/10 00:17:52;;;;;;;15.30;4.37;;;;;;;22.35;48.53;99806.09;1825431;78;21283;-81
2023/06/10 00:21:02;;;;;;;13.00;4.55;;;;;;;22.30;48.76;99807.41;1825137;78;21607;-80
2023/06/10 00:24:05;;;;;;;9.23;4.00;;;;;;;22.16;49.34;99807.88;1823757;78;21329;-80
2023/06/10 00:27:11;;;;;;;9.65;4.30;;;;;;;22.12;49.68;99801.70;1825166;78;21294;-80
2023/06/10 00:30:18;;;;;;;11.80;3.90;;;;;;;22.07;50.04;99796.05;1825147;78;21300;-80
2023/06/10 00:33:25;;;;;;;8.45;4.30;;;;;;;21.97;50.43;99791.20;1823827;78;21297;-80
2023/06/10 00:36:30;;;;;;;8.28;4.17;;;;;;;21.94;50.70;99798.71;1824192;78;21272;-80
2023/06/10 00:39:36;;;;;;;12.73;4.00;;;;;;;22.03;50.60;99787.94;1821652;78;21296;-81
2023/06/10 00:42:42;;;;;;;15.28;4.28;;;;;;;22.20;50.33;99783.09;1757765;81;21340;-81
2023/06/10 00:45:48;;;;;;;14.55;4.08;;;;;;;22.18;50.45;99777.80;1758954;81;21888;-81
2023/06/10 00:48:55;;;;;;;11.68;4.72;;;;;;;22.19;50.55;99778.63;1759597;81;21901;-81
2023/06/10 00:52:01;;;;;;;13.50;4.17;;;;;;;21.93;51.35;99777.55;1760139;81;21294;-81
2023/06/10 00:55:07;;;;;;;8.90;3.90;;;;;;;21.89;51.72;99772.21;1760303;81;21948;-82
2023/06/10 00:58:14;;;;;;;16.52;4.62;;;;;;;21.86;51.85;99765.22;1760343;81;21313;-82
2023/06/10 01:01:20;;;;;;;14.98;4.30;;;;;;;21.82;52.03;99765.45;1759631;81;21345;-81
2023/06/10 01:04:20;;;;;;;14.30;4.47;;;;;;;21.86;51.99;99764.37;1759260;81;21341;-82
2023/06/10 01:07:35;;;;;;;14.45;5.25;;;;;;;21.67;52.58;99770.31;1759023;81;21329;-82
2023/06/10 01:10:45;;;;;;;17.57;4.70;;;;;;;21.78;52.43;99770.41;1758988;81;21206;-82
2023/06/10 01:13:56;;;;;;;13.48;5.17;;;;;;;21.76;52.53;99770.69;1796276;80;21306;-82
2023/06/10 01:17:03;;;;;;;13.83;5.12;;;;;;;21.74;52.67;99773.43;1780370;80;21318;-82
2023/06/10 01:20:11;;;;;;;17.92;4.97;;;;;;;21.72;52.76;99768.69;1798601;80;21285;-81
2023/06/10 01:23:17;;;;;;;17.48;4.92;;;;;;;21.71;52.76;99775.37;1798322;80;21318;-82
2023/06/10 01:26:23;;;;;;;13.15;5.00;;;;;;;21.81;52.50;99774.91;1798789;80;21223;-82
2023/06/10 01:29:44;;;;;;;13.32;5.17;;;;;;;21.60;53.04;99778.05;1797284;80;21310;-82
2023/06/10 01:32:57;;;;;;;19.17;5.60;;;;;;;21.62;53.16;99776.38;1795123;78;21314;-80
2023/06/10 01:36:05;;;;;;;11.75;5.17;;;;;;;21.61;53.21;99774.16;1798674;80;21287;-81
2023/06/10 01:39:12;;;;;;;10.32;4.80;;;;;;;21.57;53.48;99775.78;1798593;80;21880;-81
2023/06/10 01:42:18;;;;;;;9.68;4.80;;;;;;;21.57;53.45;99778.56;1812303;77;21331;-81
2023/06/10 01:45:25;;;;;;;11.15;4.55;;;;;;;21.46;53.73;99773.99;1787505;80;21312;-81
2023/06/10 01:48:31;;;;;;;22.80;5.05;;;;;;;21.41;54.16;99771.16;1755519;81;21352;-81
2023/06/10 01:51:39;;;;;;;17.60;5.08;;;;;;;21.46;54.20;99771.77;1760730;81;21311;-80
2023/06/10 01:54:44;;;;;;;10.23;4.67;;;;;;;21.29;54.83;99767.63;1767282;81;21291;-80
2023/06/10 01:57:51;;;;;;;16.42;5.00;;;;;;;21.36;54.82;99768.28;1768851;81;21299;-81
2023/06/10 02:00:57;;;;;;;14.55;4.80;;;;;;;21.47;54.54;99770.11;1768664;81;21288;-81
2023/06/10 02:04:02;;;;;;;16.35;5.35;;;;;;;21.54;54.34;99773.51;1767872;81;21355;-81
2023/06/10 02:07:07;;;;;;;12.63;4.45;;;;;;;21.46;54.68;99771.77;1768313;81;21854;-80
2023/06/10 02:10:15;;;;;;;11.35;5.03;;;;;;;21.63;54.53;99766.92;1768211;81;21299;-80
2023/06/10 02:13:23;;;;;;;18.05;4.80;;;;;;;21.82;54.24;99780.76;1768293;81;21303;-80
2023/06/10 02:16:31;;;;;;;12.13;4.85;;;;;;;22.17;53.20;99773.34;1766645;79;21338;-80
2023/06/10 02:19:37;;;;;;;16.30;4.87;;;;;;;22.36;52.52;99770.14;1766692;81;21295;-80
2023/06/10 02:22:43;;;;;;;7.33;4.42;;;;;;;22.46;52.30;99770.22;1766731;81;21905;-80
2023/06/10 02:25:48;;;;;;;19.90;5.15;;;;;;;22.68;51.68;99772.33;1766629;81;21331;-80
2023/06/10 02:28:54;;;;;;;13.18;4.90;;;;;;;22.99;51.04;99770.29;1768220;81;21925;-80
2023/06/10 02:31:59;;;;;;;8.35;4.42;;;;;;;23.29;50.29;99774.63;1767937;80;21346;-81
2023/06/10 02:35:07;;;;;;;13.50;4.87;;;;;;;23.72;49.05;99772.55;1767356;81;21320;-80
2023/06/10 02:38:15;;;;;;;12.78;4.03;;;;;;;23.95;48.17;99769.80;1768063;81;21930;-80
2023/06/10 02:41:22;;;;;;;11.08;4.15;;;;;;;24.27;47.20;99765.88;1747759;81;21869;-80
2023/06/10 02:44:28;;;;;;;7.85;3.98;;;;;;;24.31;47.10;99769.80;1761453;80;21323;-80
2023/06/10 02:47:34;;;;;;;20.62;4.40;;;;;;;24.49;46.44;99770.66;1760612;80;21331;-80
2023/06/10 02:50:41;;;;;;;13.28;4.30;;;;;;;24.55;46.17;99775.67;1759625;81;21358;-80
2023/06/10 02:53:52;;;;;;;10.32;3.98;;;;;;;24.49;46.11;99770.66;1760463;81;21296;-82
2023/06/10 02:56:57;;;;;;;24.98;4.53;;;;;;;24.29;46.47;99777.63;1759177;81;21295;-81
2023/06/10 03:00:04;;;;;;;13.50;4.20;;;;;;;24.12;46.89;99777.33;1760609;81;21292;-82
2023/06/10 03:03:11;;;;;;;11.68;4.60;;;;;;;24.17;46.82;99766.72;1759828;80;21324;-81
2023/06/10 03:06:24;;;;;;;12.13;4.65;;;;;;;24.08;47.08;99773.41;1760111;80;21308;-81
2023/06/10 03:09:24;;;;;;;11.63;4.12;;;;;;;24.07;47.15;99770.34;1755673;81;21855;-81
2023/06/10 03:12:33;;;;;;;8.83;4.28;;;;;;;24.04;47.08;99774.25;1820286;79;21280;-81
2023/06/10 03:15:40;;;;;;;10.55;4.72;;;;;;;23.99;47.07;99761.12;1780714;80;21331;-81
2023/06/10 03:18:48;;;;;;;10.82;4.10;;;;;;;24.01;47.07;99768.67;1819694;77;21311;-81
2023/06/10 03:21:57;;;;;;;10.50;4.60;;;;;;;23.96;47.14;99765.88;1770466;80;21311;-81
2023/06/10 03:25:06;;;;;;;12.28;4.40;;;;;;;24.01;47.19;99764.48;1740752;81;21902;-82
2023/06/10 03:28:14;;;;;;;14.70;4.03;;;;;;;24.03;47.29;99759.45;1756987;81;21311;-81
2023/06/10 03:31:20;;;;;;;11.43;4.40;;;;;;;24.06;47.28;99763.09;1757192;81;21312;-81
2023/06/10 03:34:26;;;;;;;13.38;4.75;;;;;;;23.97;47.63;99766.16;1755911;81;21335;-81
2023/06/10 03:37:33;;;;;;;16.05;3.92;;;;;;;24.19;47.14;99756.95;1780464;79;21272;-81
2023/06/10 03:40:39;;;;;;;8.48;3.92;;;;;;;24.17;47.22;99753.58;1797402;80;21308;-81
2023/06/10 03:43:46;;;;;;;8.50;3.90;;;;;;;24.15;47.35;99752.20;1860552;76;21300;-81
2023/06/10 03:46:53;;;;;;;10.58;4.55;;;;;;;24.30;47.14;99756.95;1871595;76;21354;-81
2023/06/10 03:49:59;;;;;;;19.67;3.90;;;;;;;24.39;47.26;99753.90;1865219;76;21275;-82
2023/06/10 03:53:07;;;;;;;7.20;3.90;;;;;;;24.53;46.63;99743.81;1868153;76;21284;-81
2023/06/10 03:56:13;;;;;;;12.73;4.47;;;;;;;24.60;46.10;99743.52;1871987;76;21284;-81
2023/06/10 03:59:18;;;;;;;13.25;3.83;;;;;;;24.60;45.54;99742.95;1871476;76;21273;-81
2023/06/10 04:02:24;;;;;;;6.03;3.47;;;;;;;24.79;44.94;99757.73;1872847;76;21853;-81
2023/06/10 04:05:24;;;;;;;9.93;3.77;;;;;;;25.05;43.99;99747.31;1864687;76;21882;-81
2023/06/10 04:08:29;;;;;;;9.20;3.65;;;;;;;25.23;43.84;99757.91;1866761;76;21275;-81
2023/06/10 04:11:35;;;;;;;8.63;4.00;;;;;;;25.47;43.32;99754.70;1872999;76;21208;-81
2023/06/10 04:14:41;;;;;;;15.93;3.87;;;;;;;25.60;43.11;99761.64;1873043;76;21267;-80
2023/06/10 04:17:49;;;;;;;8.85;3.58;;;;;;;25.88;42.96;99762.06;1872894;76;21279;-81
2023/06/10 04:20:56;;;;;;;7.15;3.45;;;;;;;25.94;42.89;99754.72;1872858;76;21279;-81
2023/06/10 04:24:02;;;;;;;8.63;3.65;;;;;;;26.18;42.35;99763.78;1873053;76;21177;-80
2023/06/10 04:27:03;;;;;;;9.23;3.55;;;;;;;26.43;41.83;99764.15;1871906;76;21300;-81
2023/06/10 04:29:55;;;;;;;8.05;3.67;;;;;;;26.52;41.41;99767.99;1871164;76;21283;-81
2023/06/10 04:33:00;;;;;;;13.88;3.70;;;;;;;26.85;40.97;99762.04;1873190;76;21292;-81
2023/06/10 04:36:11;;;;;;;9.73;3.87;;;;;;;27.05;40.77;99760.13;1872603;76;21279;-81
2023/06/10 04:39:16;;;;;;;11.73;3.55;;;;;;;27.17;40.49;99763.40;1872982;76;21310;-80
2023/06/10 04:42:23;;;;;;;11.12;3.75;;;;;;;27.33;40.04;99760.65;1872848;76;21279;-81
2023/06/10 04:45:29;;;;;;;15.65;3.58;;;;;;;27.21;38.48;99763.07;1865210;76;21315;-80
2023/06/10 04:48:37;;;;;;;7.62;3.10;;;;;;;27.13;38.33;99757.54;1860963;77;21837;-81
2023/06/10 04:51:44;;;;;;;7.83;3.25;;;;;;;27.28;38.20;99757.08;1859535;77;21310;-81
2023/06/10 04:54:49;;;;;;;12.15;3.42;;;;;;;27.15;38.33;99752.48;1859499;77;21280;-81
2023/06/10 04:57:55;;;;;;;9.98;3.00;;;;;;;27.29;37.82;99744.70;1859492;77;21284;-81
2023/06/10 05:01:02;;;;;;;8.15;3.33;;;;;;;27.50;38.27;99757.34;1861163;77;21286;-81
2023/06/10 05:04:07;;;;;;;8.63;3.35;;;;;;;27.60;37.10;99749.34;1861126;77;21221;-82
2023/06/10 05:07:13;;;;;;;7.97;3.62;;;;;;;27.93;36.72;99746.07;1860262;77;21299;-81
2023/06/10 05:10:19;;;;;;;8.90;2.87;;;;;;;28.18;35.93;99745.67;1861035;77;21845;-81
2023/06/10 05:13:24;;;;;;;5.08;3.37;;;;;;;28.19;34.97;99748.75;1861228;77;21268;-81
2023/06/10 05:16:31;;;;;;;8.30;3.27;;;;;;;28.20;35.74;99733.54;1861188;77;21514;-81
2023/06/10 05:19:37;;;;;;;6.28;3.05;;;;;;;28.48;35.51;99732.25;1861223;77;21316;-81
2023/06/10 05:22:44;;;;;;;8.85;3.62;;;;;;;28.48;34.85;99735.06;1861040;77;21298;-81
2023/06/10 05:25:51;;;;;;;9.18;3.80;;;;;;;28.62;35.35;99724.67;1861003;77;21300;-81
2023/06/10 05:28:58;;;;;;;7.62;3.47;;;;;;;28.45;36.15;99725.25;1861124;77;21272;-81
2023/06/10 05:32:06;;;;;;;10.50;3.52;;;;;;;28.38;35.63;99722.02;1861129;77;21304;-81
2023/06/10 05:35:12;;;;;;;14.78;3.77;;;;;;;28.47;35.63;99726.36;1860636;75;21335;-81
2023/06/10 05:38:18;;;;;;;8.85;3.60;;;;;;;28.48;35.52;99721.00;1859786;77;21280;-80
2023/06/10 05:41:25;;;;;;;9.90;3.98;;;;;;;28.45;36.14;99720.20;1861108;77;22582;-81
2023/06/10 05:44:30;;;;;;;12.10;3.52;;;;;;;28.52;36.27;99722.05;1861382;77;21600;-81
2023/06/10 05:47:36;;;;;;;10.13;3.85;;;;;;;28.88;35.59;99713.73;1859047;77;21312;-81
2023/06/10 05:50:44;;;;;;;11.15;3.75;;;;;;;29.00;35.49;99711.84;1860453;75;21321;-81
2023/06/10 05:53:50;;;;;;;12.25;3.33;;;;;;;28.86;35.47;99714.62;1859410;77;21865;-81
2023/06/10 05:56:56;;;;;;;8.85;3.47;;;;;;;29.01;34.80;99714.34;1861008;77;21328;-81
2023/06/10 06:00:01;;;;;;;15.40;3.90;;;;;;;28.92;35.08;99717.59;1859476;77;21288;-81
2023/06/10 06:03:07;;;;;;;9.03;3.65;;;;;;;29.04;34.80;99705.86;1861015;77;21292;-81
2023/06/10 06:06:12;;;;;;;12.53;3.80;;;;;;;29.06;34.40;99708.34;1860390;77;21301;-81
2023/06/10 06:09:11;;;;;;;22.85;3.67;;;;;;;29.40;34.25;99713.52;1859588;77;21312;-81
2023/06/10 06:12:16;;;;;;;19.57;3.98;;;;;;;29.40;33.91;99709.29;1861048;77;21854;-81
2023/06/10 06:15:23;;;;;;;18.40;4.33;;;;;;;29.37;34.27;99711.34;1860929;77;21271;-82
2023/06/10 06:18:29;;;;;;;10.50;4.33;;;;;;;29.61;34.51;99707.72;1860172;77;21919;-81
2023/06/10 06:21:35;;;;;;;12.43;3.52;;;;;;;29.84;34.15;99711.98;1860026;77;21870;-79
2023/06/10 06:24:41;;;;;;;12.78;3.75;;;;;;;30.05;33.42;99723.83;1860916;77;21272;-80
2023/06/10 06:27:48;;;;;;;11.57;4.10;;;;;;;29.99;32.92;99718.06;1860897;77;21316;-80
2023/06/10 06:30:56;;;;;;;10.93;3.62;;;;;;;30.32;32.54;99717.01;1861449;77;21288;-80
2023/06/10 06:34:03;;;;;;;15.95;3.98;;;;;;;30.49;31.54;99710.06;1860945;77;21318;-80
2023/06/10 06:37:09;;;;;;;12.98;3.30;;;;;;;30.36;32.12;99713.22;1859996;77;21300;-80
2023/06/10 06:40:17;;;;;;;19.40;4.28;;;;;;;30.40;32.14;99717.06;1850416;77;21271;-80
2023/06/10 06:43:23;;;;;;;13.88;3.80;;;;;;;30.37;32.06;99711.23;1792107;80;21288;-80
2023/06/10 06:46:51;;;;;;;14.25;3.87;;;;;;;30.26;32.30;99702.20;1830253;78;21607;-80
2023/06/10 06:49:57;;;;;;;24.90;4.03;;;;;;;30.25;32.26;99707.02;1768710;81;21328;-80
2023/06/10 06:53:03;;;;;;;19.98;4.08;;;;;;;30.48;32.54;99709.20;1758585;81;21348;-80
2023/06/10 06:56:09;;;;;;;23.47;4.28;;;;;;;30.29;32.91;99708.02;1766962;81;21321;-80
2023/06/10 06:59:07;;;;;;;17.42;3.77;;;;;;;30.37;33.33;99701.35;1767818;81;21332;-80
2023/06/10 07:02:13;;;;;;;13.08;4.05;;;;;;;30.69;32.42;99708.67;1768628;81;21293;-80
2023/06/10 07:05:19;;;;;;;17.52;4.10;;;;;;;30.91;32.30;99695.07;1768817;81;21860;-80
2023/06/10 07:08:26;;;;;;;23.67;3.83;;;;;;;30.83;31.08;99697.30;1768414;81;21344;-80
2023/06/10 07:11:31;;;;;;;17.77;4.03;;;;;;;30.78;31.34;99693.47;1766612;81;21345;-80
2023/06/10 07:14:30;;;;;;;13.65;3.90;;;;;;;30.91;30.99;99694.52;1767489;81;21860;-80
2023/06/10 07:17:22;;;;;;;14.23;4.00;;;;;;;30.86;31.52;99696.63;1768882;81;21305;-80
2023/06/10 07:20:09;;;;;;;12.37;3.30;;;;;;;31.09;31.27;99689.73;1767416;81;21301;-80
2023/06/10 07:23:01;;;;;;;15.32;3.50;;;;;;;31.05;30.37;99687.31;1768839;81;21309;-80
2023/06/10 07:25:47;;;;;;;18.40;4.58;;;;;;;31.08;29.95;99691.48;1767549;81;21293;-80
2023/06/10 07:28:40;;;;;;;18.02;4.10;;;;;;;31.11;30.38;99694.50;1768427;81;22001;-80
2023/06/10 07:31:46;;;;;;;17.48;4.03;;;;;;;31.14;31.02;99696.64;1768914;81;21332;-80
2023/06/10 07:34:52;;;;;;;26.42;4.35;;;;;;;31.22;30.77;99695.84;1749282;81;21919;-80
2023/06/10 07:37:59;;;;;;;19.07;3.90;;;;;;;31.32;30.56;99686.84;1771759;81;21317;-80
2023/06/10 07:41:07;;;;;;;19.92;3.33;;;;;;;31.44;30.41;99687.03;1833036;78;21846;-80
2023/06/10 07:44:12;;;;;;;15.58;4.00;;;;;;;31.77;30.03;99694.45;1833090;78;21287;-80
2023/06/10 07:47:18;;;;;;;19.98;3.62;;;;;;;31.77;30.03;99694.45;1833025;78;21279;-80
2023/06/10 07:50:23;;;;;;;18.48;3.17;;;;;;;31.69;29.39;99687.63;1826553;78;21287;-80
2023/06/10 07:53:30;;;;;;;14.83;3.20;;;;;;;31.91;29.56;99681.59;1835931;78;21283;-80
2023/06/10 07:56:36;;;;;;;15.15;3.15;;;;;;;32.19;28.39;99685.71;1832551;78;21870;-80
2023/06/10 07:59:44;;;;;;;15.88;4.12;;;;;;;32.30;28.36;99680.52;1812335;79;21280;-80
2023/06/10 08:02:51;;;;;;;21.80;3.12;;;;;;;32.40;27.65;99681.60;1814941;79;21303;-80
2023/06/10 08:05:59;;;;;;;13.60;3.42;;;;;;;32.17;27.36;99672.47;1823605;78;21288;-80
2023/06/10 08:09:04;;;;;;;18.00;4.17;;;;;;;32.33;27.74;99670.55;1786874;80;21328;-80
2023/06/10 08:12:12;;;;;;;24.25;4.08;;;;;;;32.47;27.63;99674.86;1776278;81;21624;-80
2023/06/10 08:15:18;;;;;;;16.07;3.17;;;;;;;32.33;27.94;99674.20;1831750;78;21849;-80
2023/06/10 08:18:24;;;;;;;18.42;3.87;;;;;;;32.33;27.94;99674.20;1787194;80;21284;-80
2023/06/10 08:21:31;;;;;;;19.98;3.72;;;;;;;32.35;27.71;99665.36;1775062;81;21899;-80
2023/06/10 08:24:37;;;;;;;10.43;3.15;;;;;;;32.40;26.80;99665.21;1821787;78;21292;-80
2023/06/10 08:27:44;;;;;;;9.83;2.70;;;;;;;32.07;26.95;99661.52;1869998;76;21307;-80
2023/06/10 08:30:52;;;;;;;13.53;3.00;;;;;;;32.22;27.45;99660.97;1864543;76;21319;-80
2023/06/10 08:33:58;;;;;;;15.38;2.92;;;;;;;32.04;25.76;99674.34;1878944;76;21282;-81
2023/06/10 08:37:04;;;;;;;9.68;2.42;;;;;;;32.35;26.29;99655.46;1878964;76;22649;-81
2023/06/10 08:40:10;;;;;;;17.15;3.02;;;;;;;32.35;26.29;99655.46;1866503;76;21273;-81
2023/06/10 08:43:32;;;;;;;16.20;2.87;;;;;;;32.31;25.71;99651.88;1844236;78;21902;-81
2023/06/10 08:46:38;;;;;;;23.20;3.65;;;;;;;32.27;25.36;99656.55;1843136;78;21292;-81
2023/06/10 08:49:48;;;;;;;18.48;3.40;;;;;;;32.21;26.01;99659.91;1844299;77;21296;-81
2023/06/10 08:52:56;;;;;;;17.82;3.65;;;;;;;32.27;26.37;99648.64;1840480;78;21315;-81
2023/06/10 08:56:01;;;;;;;16.37;3.20;;;;;;;32.37;26.34;99647.48;1836348;78;21293;-81
2023/06/10 08:59:06;;;;;;;12.33;2.27;;;;;;;32.38;24.68;99642.92;1835563;78;21360;-81
2023/06/10 09:02:12;;;;;;;14.53;2.17;;;;;;;32.41;25.42;99638.56;1835908;78;21285;-80
2023/06/10 09:05:17;;;;;;;10.68;2.33;;;;;;;32.41;25.42;99638.56;1836053;78;21268;-81
2023/06/10 09:08:24;;;;;;;21.17;3.10;;;;;;;32.54;23.61;99641.19;1835967;78;21289;-80
2023/06/10 09:11:30;;;;;;;6.22;2.12;;;;;;;32.75;23.78;99634.78;1834921;78;21324;-80
2023/06/10 09:14:38;;;;;;;8.95;2.50;;;;;;;32.65;23.50;99640.21;1835566;78;21887;-80
2023/06/10 09:17:45;;;;;;;12.20;2.80;;;;;;;32.71;22.81;99655.86;1834441;78;21291;-81
2023/06/10 09:20:52;;;;;;;6.90;2.22;;;;;;;32.78;23.72;99636.33;1835490;78;21313;-81
2023/06/10 09:23:58;;;;;;;15.45;2.75;;;;;;;33.06;22.77;99640.13;1836172;78;21292;-81
2023/06/10 09:27:16;;;;;;;11.73;2.60;;;;;;;33.06;22.77;99640.13;1836019;78;21277;-81
2023/06/10 09:30:35;;;;;;;6.03;1.90;;;;;;;32.83;22.97;99636.13;1834933;78;21325;-81
2023/06/10 09:33:42;;;;;;;15.25;2.40;;;;;;;32.77;23.11;99644.58;1836552;78;21213;-81
2023/06/10 09:36:49;;;;;;;12.15;2.58;;;;;;;32.51;22.17;99639.61;1833553;78;21301;-81
2023/06/10 09:40:11;;;;;;;18.20;3.25;;;;;;;32.55;22.80;99634.94;1836416;78;21578;-81
2023/06/10 09:43:17;;;;;;;6.95;2.22;;;;;;;32.55;22.80;99634.94;1822905;78;21289;-81
2023/06/10 09:46:25;;;;;;;15.08;2.70;;;;;;;32.59;23.01;99634.50;1836013;78;21273;-81
2023/06/10 09:49:31;;;;;;;6.65;2.37;;;;;;;32.69;23.80;99625.63;1836023;78;21308;-81
2023/06/10 09:52:36;;;;;;;8.60;2.10;;;;;;;32.69;23.80;99625.63;1830101;78;21340;-81
2023/06/10 09:55:42;;;;;;;12.82;2.33;;;;;;;32.82;22.72;99633.65;1831730;78;21840;-81
2023/06/10 09:58:46;;;;;;;11.12;2.30;;;;;;;32.82;22.33;99628.81;1807225;78;21313;-81
2023/06/10 10:01:51;;;;;;;11.05;2.85;;;;;;;32.86;22.82;99636.05;1832194;78;21293;-80
2023/06/10 10:04:57;;;;;;;15.25;2.50;;;;;;;32.97;23.24;99611.84;1808696;78;21290;-81
2023/06/10 10:08:03;;;;;;;12.45;2.67;;;;;;;32.96;23.23;99620.70;1833252;78;21879;-81
2023/06/10 10:11:09;;;;;;;11.30;2.60;;;;;;;33.09;23.47;99621.63;1832842;78;22601;-81
2023/06/10 10:14:16;;;;;;;15.72;3.05;;;;;;;33.07;22.77;99624.78;1832992;78;21277;-80
2023/06/10 10:17:23;;;;;;;17.55;2.92;;;;;;;33.02;22.67;99626.39;1833019;78;22697;-80
2023/06/10 10:20:33;;;;;;;33.42;3.83;;;;;;;32.94;23.51;99611.14;1832255;78;21296;-81
2023/06/10 10:23:45;;;;;;;8.98;2.62;;;;;;;33.04;24.27;99619.82;1833134;78;21289;-81
2023/06/10 10:26:51;;;;;;;15.78;2.85;;;;;;;32.91;24.26;99606.73;1833363;78;21523;-81
2023/06/10 10:29:58;;;;;;;13.10;2.75;;;;;;;33.06;23.44;99608.38;1831866;78;21827;-81
2023/06/10 10:33:22;;;;;;;9.13;2.87;;;;;;;33.23;24.49;99606.61;1834117;78;21807;-81
2023/06/10 10:36:29;;;;;;;13.60;2.90;;;;;;;33.19;24.04;99606.45;1833336;78;21328;-81
2023/06/10 10:39:35;;;;;;;8.83;2.67;;;;;;;33.21;24.10;99603.27;1833273;78;21838;-81
2023/06/10 10:42:34;;;;;;;10.95;2.83;;;;;;;33.39;24.07;99605.39;1832405;78;21871;-81
2023/06/10 10:45:40;;;;;;;10.32;3.00;;;;;;;33.39;23.49;99596.30;1833192;78;21313;-80
2023/06/10 10:48:46;;;;;;;13.93;3.00;;;;;;;33.38;23.61;99606.57;1833525;78;21315;-80
2023/06/10 10:52:10;;;;;;;10.20;2.90;;;;;;;33.23;23.29;99608.02;1838475;77;21361;-80
2023/06/10 10:55:18;;;;;;;10.82;2.70;;;;;;;33.22;23.04;99603.50;1824060;77;21288;-80
2023/06/10 10:58:24;;;;;;;12.85;2.80;;;;;;;32.95;23.00;99593.55;1825154;77;21293;-80
2023/06/10 11:01:28;;;;;;;8.80;2.58;;;;;;;32.87;23.01;99597.23;1838951;77;21656;-80
2023/06/10 11:04:35;;;;;;;13.48;3.30;;;;;;;32.76;22.77;99586.30;1836126;78;21309;-80
2023/06/10 11:07:41;;;;;;;7.97;2.42;;;;;;;32.82;23.55;99586.92;1836163;78;21288;-80
2023/06/10 11:10:50;;;;;;;11.50;3.08;;;;;;;32.82;24.25;99586.92;1836318;78;21293;-81
2023/06/10 11:14:12;;;;;;;13.10;3.12;;;;;;;32.78;24.09;99576.86;1836915;78;21296;-80
2023/06/10 11:17:28;;;;;;;8.93;3.17;;;;;;;32.75;24.11;99581.81;1793346;78;21273;-80
2023/06/10 11:21:08;;;;;;;12.58;3.42;;;;;;;32.42;24.32;99575.99;1835996;78;21336;-80
2023/06/10 11:24:23;;;;;;;8.40;2.70;;;;;;;32.39;24.19;99578.66;1836540;78;21276;-80
2023/06/10 11:27:32;;;;;;;14.90;3.05;;;;;;;32.27;25.55;99574.50;1836333;78;21284;-80
2023/06/10 11:30:41;;;;;;;11.10;2.90;;;;;;;32.27;25.55;99574.50;1836375;78;21284;-80
2023/06/10 11:33:48;;;;;;;15.93;3.25;;;;;;;32.19;25.24;99575.38;1819605;78;21327;-80
2023/06/10 11:36:54;;;;;;;12.13;3.47;;;;;;;32.29;25.01;99568.52;1835186;78;21883;-80
2023/06/10 11:40:03;;;;;;;13.35;3.15;;;;;;;32.33;25.17;99574.34;1836342;78;21337;-80
2023/06/10 11:43:08;;;;;;;12.27;2.80;;;;;;;32.15;25.03;99570.16;1835705;78;21855;-80
2023/06/10 11:46:15;;;;;;;15.50;3.20;;;;;;;32.20;25.87;99571.97;1805701;79;21275;-80
2023/06/10 11:49:21;;;;;;;9.85;2.52;;;;;;;32.23;25.78;99579.76;1805542;79;21920;-80
2023/06/10 11:52:31;;;;;;;21.07;2.83;;;;;;;32.23;25.21;99580.62;1802483;78;21299;-80
2023/06/10 11:55:51;;;;;;;18.32;3.47;;;;;;;32.25;24.91;99570.36;1783542;79;21869;-80
2023/06/10 11:59:07;;;;;;;16.25;2.60;;;;;;;32.30;25.85;99571.00;1791370;78;21298;-80
2023/06/10 12:02:12;;;;;;;11.00;2.85;;;;;;;32.40;26.35;99574.66;1772994;81;21331;-80
2023/06/10 12:05:22;;;;;;;9.38;3.17;;;;;;;32.33;26.33;99573.75;1773161;81;21849;-80
2023/06/10 12:08:28;;;;;;;8.10;2.98;;;;;;;32.19;26.26;99571.14;1773316;81;21291;-80
2023/06/10 12:11:36;;;;;;;17.57;3.65;;;;;;;32.23;27.17;99572.69;1773203;81;21294;-80
2023/06/10 12:14:58;;;;;;;13.03;3.83;;;;;;;32.08;26.95;99572.66;1771647;78;21925;-80
2023/06/10 12:17:52;;;;;;;12.60;2.80;;;;;;;31.92;26.86;99572.38;1772941;81;21290;-80
2023/06/10 12:20:59;;;;;;;8.40;3.05;;;;;;;31.53;26.56;99573.42;1771602;80;21286;-80
2023/06/10 12:24:17;;;;;;;12.85;3.17;;;;;;;31.43;27.05;99567.53;1771673;81;21314;-80
2023/06/10 12:27:23;;;;;;;16.62;3.67;;;;;;;31.12;27.95;99569.06;1773029;81;21848;-80
2023/06/10 12:30:32;;;;;;;16.37;3.33;;;;;;;31.23;27.81;99578.86;1748938;81;21294;-80
2023/06/10 12:33:37;;;;;;;10.00;3.20;;;;;;;31.24;28.24;99572.63;1772509;81;21323;-80
2023/06/10 12:36:42;;;;;;;15.98;3.70;;;;;;;31.29;27.33;99578.17;1772992;81;22608;-80
2023/06/10 12:39:48;;;;;;;18.45;3.40;;;;;;;31.22;27.88;99572.14;1748607;81;21315;-80
2023/06/10 12:42:54;;;;;;;16.20;3.35;;;;;;;31.20;27.90;99568.83;1773048;81;21777;-80
2023/06/10 12:46:00;;;;;;;13.00;3.58;;;;;;;31.22;27.71;99575.79;1773001;81;21286;-80
2023/06/10 12:49:05;;;;;;;14.38;3.47;;;;;;;31.20;28.14;99569.66;1773093;81;21294;-80
2023/06/10 12:52:10;;;;;;;10.80;3.40;;;;;;;31.31;28.08;99570.18;1772872;81;21310;-79
2023/06/10 12:55:16;;;;;;;15.78;3.77;;;;;;;31.25;27.85;99573.73;1806814;78;21294;-80
2023/06/10 12:58:24;;;;;;;17.73;3.40;;;;;;;31.18;28.11;99570.55;1812596;79;21310;-80
2023/06/10 13:01:31;;;;;;;12.05;3.85;;;;;;;31.20;28.65;99559.77;1806544;79;21306;-80
2023/06/10 13:04:37;;;;;;;17.82;4.00;;;;;;;31.20;28.90;99558.94;1794168;80;21296;-80
2023/06/10 13:07:44;;;;;;;17.12;3.85;;;;;;;31.24;28.78;99557.95;1793787;80;21324;-79
2023/06/10 13:10:49;;;;;;;13.30;3.50;;;;;;;31.21;28.96;99554.36;1794469;80;21869;-80
2023/06/10 13:13:55;;;;;;;11.68;3.27;;;;;;;31.11;28.85;99553.88;1794092;80;21346;-80
2023/06/10 13:17:01;;;;;;;11.08;3.58;;;;;;;31.14;29.20;99550.36;1794292;80;21881;-80
2023/06/10 13:20:08;;;;;;;17.37;3.70;;;;;;;31.25;28.63;99552.54;1794429;80;21292;-80
2023/06/10 13:23:15;;;;;;;10.00;3.12;;;;;;;31.14;28.71;99554.59;1793533;80;21327;-80
2023/06/10 13:26:20;;;;;;;14.33;3.30;;;;;;;31.09;28.88;99547.12;1794391;80;21490;-80
2023/06/10 13:29:27;;;;;;;13.48;3.22;;;;;;;31.08;29.12;99548.88;1794313;80;21307;-80
2023/06/10 13:32:34;;;;;;;12.70;3.10;;;;;;;31.13;29.27;99540.23;1792871;80;21299;-80
2023/06/10 13:35:39;;;;;;;14.95;3.30;;;;;;;30.99;29.30;99545.45;1793247;80;21316;-80
2023/06/10 13:38:45;;;;;;;14.28;3.30;;;;;;;30.95;29.73;99543.03;1793323;80;21319;-80
2023/06/10 13:41:51;;;;;;;11.00;2.60;;;;;;;30.99;29.55;99540.39;1794231;80;21323;-80
2023/06/10 13:44:58;;;;;;;17.57;3.75;;;;;;;31.03;29.76;99542.80;1793712;80;21299;-80
2023/06/10 13:48:05;;;;;;;10.55;3.15;;;;;;;31.06;29.76;99540.74;1830769;78;21616;-80
2023/06/10 13:51:11;;;;;;;8.18;3.22;;;;;;;30.98;29.91;99534.50;1836159;78;21342;-80
2023/06/10 13:54:16;;;;;;;13.55;3.50;;;;;;;31.12;29.64;99541.41;1827612;76;21271;-80
2023/06/10 13:57:23;;;;;;;8.53;3.02;;;;;;;30.98;30.01;99538.73;1819901;76;21850;-80
2023/06/10 14:00:29;;;;;;;8.48;2.50;;;;;;;30.92;29.86;99535.83;1827077;78;21256;-80
2023/06/10 14:03:36;;;;;;;16.17;3.62;;;;;;;30.79;30.07;99539.05;1806194;78;21298;-80
2023/06/10 14:06:42;;;;;;;7.58;2.85;;;;;;;30.76;30.50;99532.05;1826472;78;21287;-80
2023/06/10 14:09:49;;;;;;;12.37;3.10;;;;;;;30.64;30.08;99531.84;1835422;78;21299;-80
2023/06/10 14:12:57;;;;;;;17.60;3.10;;;;;;;30.59;29.47;99531.17;1837006;78;21283;-80
2023/06/10 14:16:03;;;;;;;9.40;3.08;;;;;;;30.62;29.70;99531.33;1835733;78;21390;-80
2023/06/10 14:19:10;;;;;;;5.72;2.75;;;;;;;30.39;30.07;99530.59;1836977;78;21857;-80
2023/06/10 14:22:16;;;;;;;10.10;2.87;;;;;;;30.28;29.89;99529.24;1836977;78;21284;-80
2023/06/10 14:25:18;;;;;;;15.60;3.05;;;;;;;30.31;30.31;99523.55;1836427;78;21854;-80
2023/06/10 14:28:11;;;;;;;14.38;2.40;;;;;;;30.19;30.17;99523.56;1830097;76;21337;-80
2023/06/10 14:30:57;;;;;;;9.60;3.15;;;;;;;30.14;30.05;99527.94;1830855;78;21306;-80